createdAt,value
2023-11-07T00:01:00.141Z,0.60
2023-11-07T00:03:29.196Z,0.70
2023-11-07T00:05:57.507Z,0.45
2023-11-07T00:08:25.762Z,0.60
2023-11-07T00:10:55.326Z,0.60
2023-11-07T00:13:23.475Z,0.60
2023-11-07T00:15:51.624Z,0.77
2023-11-07T00:18:19.801Z,0.65
2023-11-07T00:20:48.055Z,0.80
2023-11-07T00:23:16.585Z,0.50
2023-11-07T00:25:45.049Z,0.70
2023-11-07T00:28:14.546Z,0.80
2023-11-07T00:30:42.930Z,0.68
2023-11-07T00:33:11.146Z,0.80
2023-11-07T00:35:39.369Z,0.95
2023-11-07T00:38:07.474Z,0.50
2023-11-07T00:40:35.581Z,0.80
2023-11-07T00:43:04.744Z,0.50
2023-11-07T00:45:34.154Z,0.77
2023-11-07T00:48:02.402Z,0.57
2023-11-07T00:50:30.584Z,0.70
2023-11-07T00:52:58.777Z,0.68
2023-11-07T00:55:27.119Z,0.43
2023-11-07T00:57:55.284Z,0.60
2023-11-07T01:00:23.537Z,0.82
2023-11-07T01:02:53.105Z,0.50
2023-11-07T01:05:21.548Z,0.32
2023-11-07T01:07:49.802Z,0.57
2023-11-07T01:10:19.097Z,0.60
2023-11-07T01:12:47.366Z,0.70
2023-11-07T01:15:16.525Z,1.10
2023-11-07T01:17:44.881Z,0.73
2023-11-07T01:20:14.726Z,0.70
2023-11-07T01:22:42.935Z,0.50
2023-11-07T01:25:11.680Z,0.70
2023-11-07T01:27:39.852Z,0.68
2023-11-07T01:30:09.697Z,0.50
2023-11-07T01:32:39.499Z,0.80
2023-11-07T01:35:08.589Z,0.60
2023-11-07T01:37:38.168Z,0.63
2023-11-07T01:40:07.473Z,0.82
2023-11-07T01:42:43.507Z,0.80
2023-11-07T01:45:12.419Z,0.65
2023-11-07T01:47:42.333Z,0.93
2023-11-07T01:50:12.466Z,0.80
2023-11-07T01:52:42.808Z,0.90
2023-11-07T01:55:15.546Z,0.98
2023-11-07T01:57:45.782Z,0.70
2023-11-07T02:00:15.240Z,0.70
2023-11-07T02:02:44.280Z,0.47
2023-11-07T02:05:12.611Z,0.70
2023-11-07T02:07:42.415Z,0.60
2023-11-07T02:10:11.426Z,0.90
2023-11-07T02:12:39.698Z,0.68
2023-11-07T02:15:23.832Z,0.60
2023-11-07T02:17:52.492Z,0.70
2023-11-07T02:20:21.140Z,0.73
2023-11-07T02:22:55.064Z,0.63
2023-11-07T02:25:25.536Z,1.00
2023-11-07T02:27:54.421Z,0.60
2023-11-07T02:30:23.339Z,0.70
2023-11-07T02:32:51.652Z,0.55
2023-11-07T02:35:20.113Z,0.73
2023-11-07T02:37:49.517Z,0.70
2023-11-07T02:40:18.083Z,0.65
2023-11-07T02:42:47.628Z,0.70
2023-11-07T02:45:16.243Z,0.70
2023-11-07T02:47:44.439Z,0.60
2023-11-07T02:50:13.142Z,0.70
2023-11-07T02:52:42.108Z,0.55
2023-11-07T02:55:10.539Z,0.63
2023-11-07T02:57:38.680Z,0.57
2023-11-07T03:00:11.523Z,0.93
2023-11-07T03:02:40.987Z,0.93
2023-11-07T03:05:09.966Z,0.70
2023-11-07T03:07:38.155Z,0.95
2023-11-07T03:10:08.122Z,0.80
2023-11-07T03:12:36.406Z,0.90
2023-11-07T03:15:05.029Z,0.63
2023-11-07T03:17:34.753Z,0.70
2023-11-07T03:20:03.257Z,0.50
2023-11-07T03:22:31.450Z,0.60
2023-11-07T03:24:59.678Z,0.77
2023-11-07T03:27:27.785Z,0.70
2023-11-07T03:29:55.988Z,0.57
2023-11-07T03:32:24.158Z,0.60
2023-11-07T03:34:53.705Z,0.70
2023-11-07T03:37:21.808Z,0.63
2023-11-07T03:39:49.961Z,0.60
2023-11-07T03:42:18.727Z,0.63
2023-11-07T03:44:46.855Z,0.60
2023-11-07T03:47:19.157Z,0.82
2023-11-07T03:49:47.387Z,0.80
2023-11-07T03:52:17.280Z,0.80
2023-11-07T03:54:45.385Z,0.77
2023-11-07T03:57:13.598Z,0.70
2023-11-07T03:59:45.684Z,0.70
2023-11-07T04:02:13.895Z,1.08
2023-11-07T04:04:42.435Z,0.90
2023-11-07T04:07:11.032Z,0.95
2023-11-07T04:09:43.373Z,1.10
2023-11-07T04:12:12.003Z,1.08
2023-11-07T04:14:40.152Z,1.10
2023-11-07T04:17:08.636Z,1.08
2023-11-07T04:19:36.755Z,1.40
2023-11-07T04:22:05.358Z,1.33
2023-11-07T04:24:33.480Z,1.33
2023-11-07T04:27:03.083Z,1.50
2023-11-07T04:29:31.272Z,1.58
2023-11-07T04:31:59.420Z,1.73
2023-11-07T04:34:28.411Z,1.40
2023-11-07T04:36:57.424Z,1.88
2023-11-07T04:39:27.498Z,1.40
2023-11-07T04:41:55.775Z,1.45
2023-11-07T04:44:26.068Z,1.40
2023-11-07T04:46:59.628Z,1.50
2023-11-07T04:49:31.844Z,1.40
2023-11-07T04:52:03.711Z,1.30
2023-11-07T04:54:32.265Z,1.35
2023-11-07T04:57:00.849Z,1.25
2023-11-07T04:59:30.670Z,1.35
2023-11-07T05:01:58.801Z,1.38
2023-11-07T05:04:32.376Z,1.67
2023-11-07T05:07:10.041Z,1.75
2023-11-07T05:13:36.680Z,1.80
2023-11-07T05:16:07.012Z,1.75
2023-11-07T05:18:39.368Z,1.50
2023-11-07T05:21:11.452Z,2.33
2023-11-07T05:23:39.841Z,1.83
2023-11-07T05:26:08.694Z,1.77
2023-11-07T05:28:38.389Z,1.90
2023-11-07T05:31:08.682Z,2.00
2023-11-07T05:33:43.527Z,1.73
2023-11-07T05:36:33.097Z,1.92
2023-11-07T05:39:01.272Z,1.73
2023-11-07T05:41:29.471Z,2.17
2023-11-07T05:43:57.942Z,1.98
2023-11-07T05:46:28.454Z,1.80
2023-11-07T05:48:57.443Z,1.90
2023-11-07T05:51:26.372Z,1.77
2023-11-07T05:53:56.142Z,2.10
2023-11-07T05:56:24.667Z,1.90
2023-11-07T05:58:52.817Z,1.60
2023-11-07T06:01:26.752Z,1.83
2023-11-07T06:03:56.297Z,2.05
2023-11-07T06:06:25.888Z,1.92
2023-11-07T06:08:54.873Z,2.00
2023-11-07T06:11:23.313Z,1.70
2023-11-07T06:17:21.494Z,1.80
2023-11-07T06:19:51.000Z,1.80
2023-11-07T06:22:35.156Z,1.35
2023-11-07T06:25:25.321Z,1.23
2023-11-07T06:28:37.494Z,1.50
2023-11-07T06:34:53.294Z,1.30
2023-11-07T06:37:35.108Z,1.40
2023-11-07T06:40:18.240Z,1.30
2023-11-07T06:42:47.699Z,1.20
2023-11-07T06:45:21.793Z,1.33
2023-11-07T06:47:50.390Z,1.23
2023-11-07T06:50:21.184Z,1.20
2023-11-07T06:52:53.688Z,1.35
2023-11-07T06:55:26.116Z,1.52
2023-11-07T06:58:13.415Z,1.40
2023-11-07T07:00:43.697Z,1.13
2023-11-07T07:03:11.882Z,1.50
2023-11-07T07:05:44.174Z,1.70
2023-11-07T07:08:12.445Z,1.55
2023-11-07T07:10:41.396Z,1.60
2023-11-07T07:13:09.786Z,1.85
2023-11-07T07:15:41.071Z,1.48
2023-11-07T07:18:09.931Z,1.40
2023-11-07T07:20:39.037Z,1.50
2023-11-07T07:23:10.328Z,1.40
2023-11-07T07:25:38.766Z,1.50
2023-11-07T07:28:07.528Z,1.30
2023-11-07T07:30:38.828Z,1.45
2023-11-07T07:33:08.911Z,1.48
2023-11-07T07:35:38.904Z,1.60
2023-11-07T07:38:10.438Z,1.40
2023-11-07T07:40:39.773Z,1.48
2023-11-07T07:43:12.119Z,1.20
2023-11-07T07:45:44.150Z,1.45
2023-11-07T07:48:13.461Z,1.55
2023-11-07T07:50:44.275Z,1.52
2023-11-07T07:53:16.480Z,1.30
2023-11-07T07:55:45.888Z,1.15
2023-11-07T07:58:20.272Z,1.25
2023-11-07T08:00:50.693Z,1.08
2023-11-07T08:03:19.495Z,1.15
2023-11-07T08:05:48.330Z,1.00
2023-11-07T08:08:18.100Z,1.10
2023-11-07T08:10:49.874Z,1.00
2023-11-07T08:13:20.952Z,1.00
2023-11-07T08:15:51.294Z,0.90
2023-11-07T08:18:19.989Z,1.00
2023-11-07T08:20:48.381Z,1.00
2023-11-07T08:23:18.213Z,0.93
2023-11-07T08:25:46.389Z,1.20
2023-11-07T08:28:14.716Z,0.90
2023-11-07T08:30:45.553Z,1.10
2023-11-07T08:33:15.035Z,0.93
2023-11-07T08:35:44.812Z,1.13
2023-11-07T08:38:13.365Z,1.27
2023-11-07T08:40:43.125Z,1.15
2023-11-07T08:43:11.486Z,0.93
2023-11-07T08:45:42.842Z,1.00
2023-11-07T08:48:11.736Z,1.30
2023-11-07T08:50:40.405Z,1.13
2023-11-07T08:53:08.830Z,1.20
2023-11-07T08:55:37.767Z,1.10
2023-11-07T08:58:07.817Z,1.00
2023-11-07T09:00:36.200Z,0.90
2023-11-07T09:03:05.442Z,0.90
2023-11-07T09:05:34.088Z,1.02
2023-11-07T09:08:04.208Z,0.90
2023-11-07T09:10:33.125Z,0.70
2023-11-07T09:13:03.341Z,0.77
2023-11-07T09:15:35.850Z,0.80
2023-11-07T09:18:04.384Z,0.80
2023-11-07T09:20:35.420Z,0.60
2023-11-07T09:23:05.097Z,0.80
2023-11-07T09:25:33.614Z,0.80
2023-11-07T09:28:03.044Z,0.77
2023-11-07T09:30:34.888Z,0.70
2023-11-07T09:33:07.677Z,0.60
2023-11-07T09:35:37.591Z,0.60
2023-11-07T09:38:05.988Z,0.70
2023-11-07T09:40:34.532Z,0.82
2023-11-07T09:43:04.101Z,0.70
2023-11-07T09:45:38.896Z,0.47
2023-11-07T09:48:11.682Z,0.60
2023-11-07T09:50:44.961Z,0.80
2023-11-07T09:53:16.384Z,0.50
2023-11-07T09:55:44.821Z,0.50
2023-11-07T09:58:24.036Z,0.60
2023-11-07T10:00:55.307Z,0.40
2023-11-07T10:03:24.407Z,0.60
2023-11-07T10:05:53.821Z,0.50
2023-11-07T10:08:24.901Z,0.45
2023-11-07T10:11:12.047Z,0.40
2023-11-07T10:13:40.503Z,0.50
2023-11-07T10:18:50.480Z,0.50
2023-11-07T10:21:34.832Z,0.50
2023-11-07T10:24:03.644Z,0.47
2023-11-07T10:26:32.488Z,0.50
2023-11-07T10:29:17.701Z,0.50
2023-11-07T10:32:01.060Z,0.40
2023-11-07T10:34:31.723Z,0.77
2023-11-07T10:37:01.317Z,0.60
2023-11-07T10:39:31.914Z,0.63
2023-11-07T10:42:19.308Z,0.50
2023-11-07T10:44:50.210Z,0.70
2023-11-07T10:47:24.239Z,0.45
2023-11-07T10:49:53.234Z,0.50
2023-11-07T10:52:22.033Z,0.50
2023-11-07T10:54:50.565Z,0.80
2023-11-07T10:57:26.047Z,0.95
2023-11-07T11:00:04.979Z,0.70
2023-11-07T11:02:36.363Z,0.50
2023-11-07T11:05:05.792Z,0.50
2023-11-07T11:07:36.865Z,0.40
2023-11-07T11:10:07.820Z,0.57
2023-11-07T11:12:39.769Z,0.68
2023-11-07T11:15:10.961Z,0.60
2023-11-07T11:17:50.085Z,0.60
2023-11-07T11:20:26.716Z,0.60
2023-11-07T11:23:01.622Z,0.60
2023-11-07T11:25:40.605Z,0.52
2023-11-07T11:28:12.712Z,0.60
2023-11-07T11:30:41.778Z,0.40
2023-11-07T11:33:12.714Z,0.50
2023-11-07T11:35:42.925Z,0.40
2023-11-07T11:38:14.431Z,0.43
2023-11-07T11:40:54.648Z,0.50
2023-11-07T11:43:24.584Z,11.68
2023-11-07T11:45:53.414Z,0.70
2023-11-07T11:49:01.806Z,0.70
2023-11-07T11:51:33.777Z,0.50
2023-11-07T11:54:02.498Z,0.40
2023-11-07T11:56:30.808Z,0.30
2023-11-07T11:59:08.748Z,0.50
2023-11-07T12:01:54.113Z,0.63
2023-11-07T12:04:31.597Z,0.70
2023-11-07T12:07:23.940Z,0.38
2023-11-07T12:09:57.527Z,0.52
2023-11-07T12:12:26.585Z,0.80
2023-11-07T12:14:56.688Z,0.40
2023-11-07T12:17:27.457Z,0.77
2023-11-07T12:20:08.462Z,0.50
2023-11-07T12:22:37.503Z,0.70
2023-11-07T12:25:15.418Z,0.63
2023-11-07T12:27:44.424Z,0.50
2023-11-07T12:30:17.983Z,0.80
2023-11-07T12:32:47.450Z,0.40
2023-11-07T12:35:21.243Z,0.50
2023-11-07T12:37:51.094Z,0.60
2023-11-07T12:40:19.853Z,0.50
2023-11-07T12:42:54.863Z,0.70
2023-11-07T12:45:30.124Z,0.50
2023-11-07T12:48:00.808Z,0.50
2023-11-07T12:50:37.829Z,0.60
2023-11-07T12:53:07.808Z,0.50
2023-11-07T12:55:39.350Z,0.30
2023-11-07T12:58:11.190Z,0.45
2023-11-07T13:01:02.524Z,0.40
2023-11-07T13:03:34.177Z,0.50
2023-11-07T13:06:07.527Z,0.40
2023-11-07T13:08:37.471Z,0.50
2023-11-07T13:11:16.339Z,0.50
2023-11-07T13:13:46.023Z,0.47
2023-11-07T13:16:16.309Z,0.70
2023-11-07T13:18:49.436Z,0.60
2023-11-07T13:21:22.040Z,0.40
2023-11-07T13:23:53.238Z,0.57
2023-11-07T13:26:30.340Z,0.52
2023-11-07T13:29:01.050Z,0.70
2023-11-07T13:31:41.723Z,0.50
2023-11-07T13:34:17.109Z,0.70
2023-11-07T13:36:47.134Z,0.50
2023-11-07T13:39:18.017Z,0.60
2023-11-07T13:41:46.273Z,0.70
2023-11-07T13:44:14.620Z,0.60
2023-11-07T13:46:43.959Z,0.50
2023-11-07T13:49:12.317Z,0.63
2023-11-07T13:51:55.163Z,0.65
2023-11-07T13:54:24.073Z,0.50
2023-11-07T13:56:55.236Z,0.52
2023-11-07T13:59:23.543Z,0.75
2023-11-07T14:01:52.697Z,0.60
2023-11-07T14:04:21.055Z,0.90
2023-11-07T14:06:49.337Z,0.80
2023-11-07T14:09:20.299Z,0.88
2023-11-07T14:11:48.551Z,0.80
2023-11-07T14:14:18.475Z,0.70
2023-11-07T14:16:47.962Z,0.88
2023-11-07T14:19:16.427Z,0.52
2023-11-07T14:21:44.829Z,0.85
2023-11-07T14:24:13.107Z,0.60
2023-11-07T14:26:55.896Z,0.60
2023-11-07T14:33:10.249Z,0.50
2023-11-07T14:35:42.100Z,0.70
2023-11-07T14:42:02.533Z,0.68
2023-11-07T14:44:30.624Z,0.50
2023-11-07T14:46:58.809Z,0.60
2023-11-07T14:49:27.043Z,1.55
2023-11-07T14:51:55.650Z,0.90
2023-11-07T14:54:23.741Z,0.60
2023-11-07T14:57:00.876Z,0.57
2023-11-07T14:59:33.829Z,0.38
2023-11-07T15:02:04.055Z,0.73
2023-11-07T15:04:35.984Z,0.60
2023-11-07T15:07:04.240Z,0.40
2023-11-07T15:09:32.348Z,0.40
2023-11-07T15:12:02.129Z,0.40
2023-11-07T15:14:30.215Z,0.40
2023-11-07T15:17:00.576Z,0.60
2023-11-07T15:19:28.893Z,0.52
2023-11-07T15:21:57.021Z,0.35
2023-11-07T15:24:25.069Z,0.70
2023-11-07T15:26:53.204Z,0.30
2023-11-07T15:29:23.088Z,0.40
2023-11-07T15:31:51.937Z,0.30
2023-11-07T15:34:21.510Z,0.30
2023-11-07T15:36:50.169Z,0.40
2023-11-07T15:39:19.552Z,0.50
2023-11-07T15:41:47.799Z,0.38
2023-11-07T15:44:17.754Z,0.32
2023-11-07T15:46:46.044Z,0.45
2023-11-07T15:49:14.369Z,0.50
2023-11-07T15:51:43.954Z,0.43
2023-11-07T15:54:13.695Z,0.60
2023-11-07T15:56:41.827Z,0.60
2023-11-07T15:59:11.843Z,0.70
2023-11-07T16:01:41.337Z,0.55
2023-11-07T16:04:09.727Z,0.60
2023-11-07T16:06:38.783Z,0.60
2023-11-07T16:09:08.708Z,0.50
2023-11-07T16:11:36.821Z,0.80
2023-11-07T16:14:06.445Z,0.77
2023-11-07T16:16:34.922Z,0.90
2023-11-07T16:19:03.461Z,0.63
2023-11-07T16:21:31.797Z,0.60
2023-11-07T16:24:00.659Z,0.80
2023-11-07T16:26:38.711Z,0.77
2023-11-07T16:29:07.117Z,0.80
2023-11-07T16:31:35.467Z,0.77
2023-11-07T16:34:03.709Z,0.93
2023-11-07T16:36:32.058Z,1.17
2023-11-07T16:39:00.364Z,0.90
2023-11-07T16:41:28.795Z,0.82
2023-11-07T16:43:58.512Z,0.80
2023-11-07T16:46:27.396Z,0.73
2023-11-07T16:48:55.544Z,1.38
2023-11-07T16:51:39.174Z,0.90
2023-11-07T16:54:08.454Z,2.72
2023-11-07T16:56:38.714Z,1.10
2023-11-07T16:59:08.400Z,0.80
2023-11-07T17:01:37.206Z,0.82
2023-11-07T17:04:05.907Z,0.85
2023-11-07T17:06:34.328Z,1.00
2023-11-07T17:09:08.401Z,1.05
2023-11-07T17:11:38.210Z,1.13
2023-11-07T17:14:10.339Z,0.93
2023-11-07T17:16:40.142Z,1.00
2023-11-07T17:19:08.534Z,1.08
2023-11-07T17:21:36.847Z,1.15
2023-11-07T17:24:06.423Z,0.82
2023-11-07T17:26:40.433Z,1.00
2023-11-07T17:29:11.611Z,1.00
2023-11-07T17:31:48.257Z,1.20
2023-11-07T17:34:24.503Z,1.02
2023-11-07T17:37:10.505Z,1.40
2023-11-07T17:39:49.722Z,1.30
2023-11-07T17:42:45.599Z,1.20
2023-11-07T17:45:20.649Z,1.23
2023-11-07T17:50:49.568Z,1.30
2023-11-07T17:58:54.705Z,0.95
2023-11-07T18:01:30.276Z,1.17
2023-11-07T18:04:06.870Z,1.33
2023-11-07T18:06:38.183Z,1.50
2023-11-07T18:09:38.856Z,1.50
2023-11-07T18:12:08.301Z,1.23
2023-11-07T18:14:40.423Z,1.30
2023-11-07T18:28:59.499Z,1.50
2023-11-07T18:31:56.375Z,1.60
2023-11-07T18:34:25.298Z,1.73
2023-11-07T18:37:30.143Z,1.88
2023-11-07T18:40:14.546Z,1.65
2023-11-07T18:42:48.371Z,2.17
2023-11-07T18:45:51.365Z,1.80
2023-11-07T18:48:31.452Z,2.63
2023-11-07T18:51:38.883Z,3.33
2023-11-07T18:54:16.832Z,3.50
2023-11-07T18:56:48.027Z,4.00
2023-11-07T18:59:31.151Z,3.20
2023-11-07T19:02:07.804Z,4.85
2023-11-07T19:04:42.681Z,2.35
2023-11-07T19:10:02.480Z,2.60
2023-11-07T19:16:28.316Z,3.60
2023-11-07T19:18:58.698Z,4.45
2023-11-07T19:21:31.478Z,4.75
2023-11-07T19:24:02.857Z,4.72
2023-11-07T19:26:31.293Z,3.10
2023-11-07T19:28:59.497Z,4.45
2023-11-07T19:31:27.991Z,4.35
2023-11-07T19:34:02.076Z,3.65
2023-11-07T19:36:32.502Z,3.92
2023-11-07T19:39:00.950Z,2.90
2023-11-07T19:41:29.140Z,3.08
2023-11-07T19:43:57.492Z,2.55
2023-11-07T19:46:28.493Z,2.00
2023-11-07T19:49:01.622Z,1.85
2023-11-07T19:51:30.257Z,2.33
2023-11-07T19:53:58.580Z,2.00
2023-11-07T19:56:27.140Z,2.00
2023-11-07T19:59:00.408Z,2.20
2023-11-07T20:01:29.324Z,1.80
2023-11-07T20:04:03.418Z,1.40
2023-11-07T20:06:32.323Z,2.58
2023-11-07T20:09:00.635Z,4.80
2023-11-07T20:11:30.495Z,9.43
2023-11-07T20:13:59.324Z,7.63
2023-11-07T20:16:28.868Z,4.13
2023-11-07T20:18:58.953Z,7.82
2023-11-07T20:21:27.684Z,4.78
2023-11-07T20:23:56.356Z,5.20
2023-11-07T20:26:24.518Z,4.18
2023-11-07T20:28:53.341Z,3.17
2023-11-07T20:31:22.310Z,3.42
2023-11-07T20:33:50.981Z,2.03
2023-11-07T20:36:23.264Z,2.78
2023-11-07T20:38:54.439Z,2.00
2023-11-07T20:41:23.118Z,1.60
2023-11-07T20:43:56.000Z,1.15
2023-11-07T20:46:33.318Z,1.50
2023-11-07T20:49:06.449Z,1.77
2023-11-07T20:51:37.703Z,1.10
2023-11-07T20:54:06.358Z,1.67
2023-11-07T20:56:34.954Z,1.33
2023-11-07T20:59:04.137Z,1.30
2023-11-07T21:01:32.520Z,1.30
2023-11-07T21:04:02.530Z,1.60
2023-11-07T21:06:31.115Z,1.33
2023-11-07T21:09:01.003Z,1.30
2023-11-07T21:11:29.194Z,1.50
2023-11-07T21:13:57.425Z,1.13
2023-11-07T21:16:25.599Z,1.38
2023-11-07T21:18:55.666Z,1.25
2023-11-07T21:21:24.070Z,1.00
2023-11-07T21:23:52.836Z,1.10
2023-11-07T21:26:24.533Z,1.10
2023-11-07T21:28:53.639Z,1.23
2023-11-07T21:31:22.046Z,1.10
2023-11-07T21:33:51.178Z,0.95
2023-11-07T21:36:20.165Z,1.00
2023-11-07T21:38:49.156Z,1.08
2023-11-07T21:41:17.417Z,1.08
2023-11-07T21:43:47.013Z,0.80
2023-11-07T21:46:15.368Z,0.90
2023-11-07T21:48:46.523Z,1.17
2023-11-07T21:51:14.860Z,1.05
2023-11-07T21:53:43.036Z,1.48
2023-11-07T21:56:13.928Z,1.30
2023-11-07T21:58:43.256Z,1.00
2023-11-07T22:01:13.647Z,1.10
2023-11-07T22:03:41.706Z,1.08
2023-11-07T22:06:12.433Z,1.13
2023-11-07T22:08:40.797Z,1.38
2023-11-07T22:11:08.829Z,1.08
2023-11-07T22:13:37.374Z,1.40
2023-11-07T22:16:05.850Z,0.93
2023-11-07T22:18:35.927Z,0.95
2023-11-07T22:21:04.855Z,1.20
2023-11-07T22:23:33.187Z,1.30
2023-11-07T22:26:01.435Z,1.27
2023-11-07T22:28:30.387Z,1.38
2023-11-07T22:30:58.670Z,1.20
2023-11-07T22:33:27.178Z,1.38
2023-11-07T22:35:56.784Z,1.10
2023-11-07T22:38:24.955Z,1.10
2023-11-07T22:40:53.378Z,0.85
2023-11-07T22:43:21.429Z,0.90
2023-11-07T22:45:49.643Z,0.90
2023-11-07T22:48:20.126Z,0.98
2023-11-07T22:50:48.421Z,1.00
2023-11-07T22:53:19.519Z,0.90
2023-11-07T22:55:48.306Z,1.00
2023-11-07T22:58:16.520Z,0.98
2023-11-07T23:00:49.596Z,1.05
2023-11-07T23:03:17.926Z,1.10
2023-11-07T23:05:46.392Z,1.10
2023-11-07T23:08:14.670Z,0.90
2023-11-07T23:10:45.739Z,1.35
2023-11-07T23:13:13.788Z,1.08
2023-11-07T23:15:42.015Z,0.90
2023-11-07T23:18:11.798Z,0.88
2023-11-07T23:20:41.453Z,1.40
2023-11-07T23:23:10.439Z,1.27
2023-11-07T23:25:38.763Z,0.90
2023-11-07T23:28:08.265Z,1.10
2023-11-07T23:30:37.587Z,1.00
2023-11-07T23:33:06.353Z,1.15
2023-11-07T23:35:34.625Z,1.17
2023-11-07T23:38:02.682Z,1.10
2023-11-07T23:40:33.766Z,0.90
2023-11-07T23:43:02.011Z,0.90
2023-11-07T23:45:35.139Z,0.95
2023-11-07T23:48:03.652Z,0.90
2023-11-07T23:50:32.870Z,1.00
2023-11-07T23:53:01.163Z,1.25
2023-11-07T23:55:29.403Z,1.10
2023-11-07T23:57:57.521Z,1.15
